Accueil
METAR-TAF:

METAR-TAF

Aéroports :

Aéroport international Indira-Gandhi

New Delhi, Inde

latitude: 28-34N, longitude: 077-07E, altitude: 220 m

Observation

Le bulletin a été fait il y a 44 minutes, à 16:30 UTC
Vent calme
Température 20°C
Humidité 56%
Pression 1017 hPa
Visibilité: 2200 m
Quelques nuages à une hauteur de 10000 ft
fumée

METAR: VIDP 211630Z 00000KT 2200 FU FEW100 20/11 Q1017 NOSIG

Heure: 22:44 (17:14 UTC)

Prévision

Le bulletin a été fait il y a 3 heures et 14 minutes, à 14:00 UTC
Prévision valable du 21 à 15 UTC au 21 à 24 UTC
Vent 4 kt de nord-est
Visibilité: 1500 m
Nuages épars à une hauteur de 10000 ft
brume sèche
Evoluant progressivement
du 21 à 22 UTC au 21 à 23 UTC
Vent kt de nord
Visibilité: 0800 m
fumée, Brouillard mince

TAF: VIDP 211400Z 2115/2124 05004KT 1500 HZ SCT100 BECMG 2122/2123 00000KT 0800 FU MIFG

Observations et prévisions météorologiques de plus de 4000 aéroports (messages METAR et TAF).

Les stations disponibles sont représentées par des disques jaunes et rouges sur la carte.

Passer la souris dessus pour voir le nom de la station.

Cliquer dessus pour voir les observations et prévisions météorologiques.

Pour changer de carte: cliquez sur les boutons verts avec une croix noire pour zoomer, sur le bouton vert avec un tiret pour effectuer un zoom arrière, ou sur les flèches vertes pour les cartes adjacentes.


METAR-TAF: